Terminal Aerodrome Forecast
Issued by NWS

Home | Current Version | Previous Version | Graphics & Text | Print | Product List | Glossary On
Versions: 1 2 3 4 5 6 7 8 9 10 11 12 13 14 15 16 17 18
000
FTUS43 KMPX 161800 CCA
TAFRWF
TAF COR
KRWF 161818Z 1618/1718 VRB06KT 2SM -SN BR OVC015
      TEMPO 1618/1621 1/2SM -SN FG OVC006
     FM162100 05012G20KT 3SM -RA BR OVC015
     FM162300 01017G25KT 2SM -SN BR OVC010
     FM170300 34016G24KT 5SM BR OVC015
     FM170800 33012G20KT P6SM BKN020
     FM171200 34011KT P6SM BKN025=

USA.gov is the U.S. government's official web portal to all federal, state and local government web resources and services.